Time;durP1;ratioP1;P1;durP2;ratioP2;P2;SDS_P1;SDS_P2;PMS_P1;PMS_P2;Temp;Humidity;BMP_temperature;BMP_pressure;BME280_temperature;BME280_humidity;BME280_pressure;Samples;Min_cycle;Max_cycle;Signal;HPM_P1;HPM_P2
2022/12/10 00:00:16;;;;;;;;;80.25;59.75;;;;;2.67;100.00;100613.66;5035415;28;45325;-75
2022/12/10 00:02:42;;;;;;;;;74.50;55.00;;;;;2.63;100.00;100617.47;5034484;28;47247;-75
2022/12/10 00:05:08;;;;;;;;;69.50;55.00;;;;;2.53;100.00;100611.03;5039461;28;45247;-75
2022/12/10 00:07:33;;;;;;;;;76.75;56.75;;;;;2.55;100.00;100617.16;5036059;28;45249;-75
2022/12/10 00:09:58;;;;;;;;;70.50;56.25;;;;;2.59;100.00;100620.47;5031051;28;45263;-74
2022/12/10 00:12:24;;;;;;;;;78.50;58.75;;;;;2.67;100.00;100626.19;5036879;28;48160;-74
2022/12/10 00:14:49;;;;;;;;;62.50;53.00;;;;;2.72;100.00;100626.75;5039813;28;45341;-75
2022/12/10 00:17:14;;;;;;;;;76.50;58.75;;;;;2.63;100.00;100616.66;5039724;28;45846;-75
2022/12/10 00:19:40;;;;;;;;;70.00;53.00;;;;;2.54;100.00;100599.34;5038877;28;45613;-74
2022/12/10 00:22:05;;;;;;;;;66.75;52.25;;;;;2.58;100.00;100613.38;5032910;28;45438;-74
2022/12/10 00:24:30;;;;;;;;;75.25;54.50;;;;;2.52;100.00;100621.84;5043676;28;45552;-74
2022/12/10 00:26:56;;;;;;;;;71.75;57.25;;;;;2.54;100.00;100620.78;5034449;28;45371;-75
2022/12/10 00:29:21;;;;;;;;;70.00;53.25;;;;;2.58;100.00;100622.28;5038428;28;45405;-75
2022/12/10 00:31:47;;;;;;;;;71.25;56.75;;;;;2.67;100.00;100626.19;5032584;28;45588;-74
2022/12/10 00:34:12;;;;;;;;;78.75;56.75;;;;;2.66;100.00;100640.56;5037850;28;45322;-74
2022/12/10 00:36:42;;;;;;;;;71.50;52.00;;;;;2.60;100.00;100620.38;5034860;28;45486;-74
2022/12/10 00:39:08;;;;;;;;;77.25;59.50;;;;;2.61;100.00;100634.66;5038562;28;45235;-74
2022/12/10 00:41:34;;;;;;;;;72.00;56.25;;;;;2.60;100.00;100630.25;5032936;28;46329;-74
2022/12/10 00:43:59;;;;;;;;;71.25;54.50;;;;;2.54;100.00;100630.66;5026256;28;45304;-74
2022/12/10 00:46:25;;;;;;;;;79.25;63.00;;;;;2.51;100.00;100637.06;5040933;28;45537;-75
2022/12/10 00:48:51;;;;;;;;;76.75;55.75;;;;;2.53;100.00;100642.34;5042340;28;45437;-75
2022/12/10 00:51:17;;;;;;;;;84.50;62.00;;;;;2.64;100.00;100642.47;5038614;28;46251;-74
2022/12/10 00:53:44;;;;;;;;;75.75;56.75;;;;;2.70;100.00;100631.38;5025799;28;45358;-75
2022/12/10 00:56:11;;;;;;;;;78.25;60.00;;;;;2.62;100.00;100623.84;5028338;28;45351;-75
2022/12/10 00:58:38;;;;;;;;;70.25;53.00;;;;;2.70;100.00;100642.09;5037758;28;45553;-74
2022/12/10 01:01:31;;;;;;;;;79.75;61.25;;;;;2.73;100.00;100636.53;5028552;28;46126;-74
2022/12/10 01:04:00;;;;;;;;;67.00;52.50;;;;;2.75;100.00;100645.34;5041148;28;46103;-76
2022/12/10 01:06:35;;;;;;;;;69.25;54.25;;;;;2.68;100.00;100627.94;5030221;28;45378;-75
2022/12/10 01:09:04;;;;;;;;;75.75;56.50;;;;;2.69;100.00;100645.75;5036591;28;45611;-75
2022/12/10 01:11:33;;;;;;;;;73.50;57.00;;;;;2.70;100.00;100634.06;5031988;28;47303;-75
2022/12/10 01:13:59;;;;;;;;;64.50;50.75;;;;;2.77;100.00;100640.75;5038275;28;45338;-75
2022/12/10 01:16:25;;;;;;;;;70.75;59.25;;;;;2.69;100.00;100630.50;5033016;28;45450;-75
2022/12/10 01:18:56;;;;;;;;;68.75;54.75;;;;;2.80;100.00;100643.19;5033537;28;45354;-75
2022/12/10 01:21:22;;;;;;;;;69.00;54.25;;;;;2.73;100.00;100655.28;5037958;28;46326;-75
2022/12/10 01:23:49;;;;;;;;;70.00;51.25;;;;;2.81;100.00;100647.59;5028972;28;45469;-75
2022/12/10 01:26:18;;;;;;;;;68.25;55.00;;;;;2.84;100.00;100668.88;5025767;28;45533;-75
2022/12/10 01:28:44;;;;;;;;;75.75;56.75;;;;;2.69;100.00;100661.84;5028355;28;45378;-75
2022/12/10 01:31:13;;;;;;;;;73.50;56.75;;;;;2.71;100.00;100660.75;5031757;28;46533;-75
2022/12/10 01:33:39;;;;;;;;;65.25;52.25;;;;;2.65;100.00;100671.91;5027875;28;45272;-75
2022/12/10 01:36:20;;;;;;;;;73.75;55.50;;;;;2.82;100.00;100673.47;5029999;28;45490;-75
2022/12/10 01:38:46;;;;;;;;;67.25;51.50;;;;;2.84;100.00;100665.34;5024517;28;45317;-75
2022/12/10 01:41:18;;;;;;;;;67.00;51.75;;;;;2.79;100.00;100672.81;5029403;28;45326;-75
2022/12/10 01:43:52;;;;;;;;;67.75;49.75;;;;;2.66;100.00;100691.53;5025821;28;45413;-75
2022/12/10 01:46:17;;;;;;;;;75.00;60.50;;;;;2.64;100.00;100696.13;5032844;28;45335;-75
2022/12/10 01:48:43;;;;;;;;;72.25;52.25;;;;;2.57;100.00;100694.81;5029363;28;45431;-75
2022/12/10 01:51:11;;;;;;;;;70.00;48.25;;;;;2.38;100.00;100692.47;5036325;28;45471;-75
2022/12/10 01:53:37;;;;;;;;;69.25;56.50;;;;;2.54;100.00;100703.06;5026964;28;45252;-75
2022/12/10 01:56:03;;;;;;;;;68.75;55.75;;;;;2.50;100.00;100699.69;5036443;28;45426;-75
2022/12/10 01:58:28;;;;;;;;;74.75;56.00;;;;;2.50;100.00;100693.47;5032098;28;45215;-75
2022/12/10 02:01:06;;;;;;;;;74.75;56.75;;;;;2.56;100.00;100703.81;5039273;28;45541;-74
2022/12/10 02:03:44;;;;;;;;;69.25;53.75;;;;;2.50;100.00;100701.53;5040218;28;45427;-75
2022/12/10 02:06:38;;;;;;;;;63.00;52.25;;;;;2.52;100.00;100713.03;5027394;28;45398;-75
2022/12/10 02:09:23;;;;;;;;;69.50;55.25;;;;;2.49;100.00;100702.47;5033112;28;45368;-75
2022/12/10 02:12:12;;;;;;;;;69.00;53.50;;;;;2.55;100.00;100718.19;5041912;28;45469;-75
2022/12/10 02:14:44;;;;;;;;;74.25;55.75;;;;;2.46;100.00;100714.28;5033338;28;45303;-75
2022/12/10 02:17:36;;;;;;;;;45.75;30.75;;;;;2.43;100.00;100708.25;5037056;28;45398;-75
2022/12/10 02:20:04;;;;;;;;;69.50;52.50;;;;;2.46;100.00;100724.16;5041379;28;45362;-75
2022/12/10 02:22:36;;;;;;;;;72.00;54.25;;;;;2.43;100.00;100713.59;5039741;28;46777;-75
2022/12/10 02:25:06;;;;;;;;;70.50;53.25;;;;;2.39;100.00;100720.13;5037030;28;45279;-75
2022/12/10 02:27:37;;;;;;;;;65.50;48.50;;;;;2.47;100.00;100718.69;5029131;28;45418;-75
2022/12/10 02:30:03;;;;;;;;;67.00;47.00;;;;;2.48;100.00;100722.22;5025258;28;45581;-75
2022/12/10 02:32:36;;;;;;;;;71.25;52.50;;;;;2.53;100.00;100720.97;5029785;28;45411;-75
2022/12/10 02:35:07;;;;;;;;;71.50;54.00;;;;;2.50;100.00;100720.28;5041036;28;45443;-75
2022/12/10 02:37:58;;;;;;;;;67.75;51.50;;;;;2.53;100.00;100712.94;5037863;28;45455;-75
2022/12/10 02:40:29;;;;;;;;;72.25;53.25;;;;;2.58;100.00;100716.16;5032215;28;45653;-75
2022/12/10 02:42:55;;;;;;;;;69.00;53.00;;;;;2.61;100.00;100712.44;5023626;28;45498;-75
2022/12/10 02:45:25;;;;;;;;;60.75;50.25;;;;;2.68;100.00;100717.31;5031068;28;45517;-75
2022/12/10 02:47:56;;;;;;;;;66.50;50.25;;;;;2.73;100.00;100719.69;5025828;28;45346;-75
2022/12/10 02:50:21;;;;;;;;;71.25;56.25;;;;;2.73;100.00;100717.00;5020296;28;45465;-75
2022/12/10 02:52:47;;;;;;;;;49.50;33.75;;;;;2.68;100.00;100711.09;5029469;28;46412;-75
2022/12/10 02:55:13;;;;;;;;;74.75;53.50;;;;;2.68;100.00;100714.63;5034407;28;45417;-75
2022/12/10 02:57:54;;;;;;;;;76.50;54.75;;;;;2.67;100.00;100728.13;5031755;28;45326;-75
2022/12/10 03:00:21;;;;;;;;;55.00;45.25;;;;;2.67;100.00;100718.25;5036768;28;45381;-75
2022/12/10 03:03:09;;;;;;;;;76.75;54.00;;;;;2.74;100.00;100724.09;5036974;28;46913;-75
2022/12/10 03:05:43;;;;;;;;;64.00;48.75;;;;;2.82;100.00;100721.78;5038925;28;45355;-75
2022/12/10 03:08:14;;;;;;;;;55.00;45.75;;;;;2.78;100.00;100728.28;5037591;28;45299;-75
2022/12/10 03:11:01;;;;;;;;;67.00;47.25;;;;;2.81;100.00;100720.06;5035139;28;45485;-75
2022/12/10 03:13:39;;;;;;;;;68.75;49.50;;;;;2.80;100.00;100698.69;5032777;28;46973;-75
2022/12/10 03:16:05;;;;;;;;;67.50;51.75;;;;;2.89;100.00;100722.22;5032290;28;45419;-75
2022/12/10 03:18:34;;;;;;;;;71.00;53.50;;;;;2.89;100.00;100728.47;5020156;28;45335;-75
2022/12/10 03:21:05;;;;;;;;;74.25;56.75;;;;;2.83;100.00;100723.50;5036488;28;45369;-75
2022/12/10 03:23:34;;;;;;;;;66.00;51.50;;;;;2.78;100.00;100722.91;5028629;28;46617;-75
2022/12/10 03:26:01;;;;;;;;;67.50;49.25;;;;;2.77;100.00;100720.34;5030781;28;45451;-75
2022/12/10 03:28:26;;;;;;;;;68.75;51.75;;;;;2.86;100.00;100733.16;5040236;28;45429;-75
2022/12/10 03:30:54;;;;;;;;;65.75;51.25;;;;;2.81;100.00;100720.06;5038573;28;45395;-75
2022/12/10 03:33:20;;;;;;;;;65.00;51.00;;;;;2.82;100.00;100732.50;5028721;28;45572;-75
2022/12/10 03:35:46;;;;;;;;;66.25;50.50;;;;;2.79;100.00;100727.31;5027252;28;45239;-75
2022/12/10 03:38:13;;;;;;;;;72.00;52.75;;;;;2.76;100.00;100732.03;5027547;28;45685;-75
2022/12/10 03:40:40;;;;;;;;;64.25;46.50;;;;;2.81;100.00;100744.19;5030973;28;45271;-75
2022/12/10 03:43:05;;;;;;;;;57.00;43.00;;;;;2.85;100.00;100736.81;5021198;28;46924;-75
2022/12/10 03:45:31;;;;;;;;;56.50;45.00;;;;;2.93;100.00;100729.09;5031105;28;46469;-75
2022/12/10 03:47:56;;;;;;;;;60.50;44.00;;;;;2.87;100.00;100730.38;5026460;28;45389;-75
2022/12/10 03:50:21;;;;;;;;;66.75;51.75;;;;;2.80;100.00;100734.41;5036757;28;45480;-75
2022/12/10 03:52:47;;;;;;;;;63.25;48.25;;;;;2.79;100.00;100732.69;5032500;28;45637;-75
2022/12/10 03:55:12;;;;;;;;;61.50;49.00;;;;;2.71;100.00;100738.56;5036735;28;45338;-75
2022/12/10 03:57:38;;;;;;;;;54.00;42.25;;;;;2.83;100.00;100739.59;5038950;28;45524;-75
2022/12/10 04:00:06;;;;;;;;;53.50;39.50;;;;;2.92;100.00;100738.97;5040116;28;45474;-75
2022/12/10 04:02:31;;;;;;;;;60.75;44.75;;;;;2.94;100.00;100753.16;5041637;28;47306;-75
2022/12/10 04:04:56;;;;;;;;;57.50;44.25;;;;;2.93;100.00;100755.94;5043460;28;45330;-75
2022/12/10 04:07:22;;;;;;;;;45.25;39.00;;;;;2.99;100.00;100751.06;5033928;28;45413;-75
2022/12/10 04:09:47;;;;;;;;;48.00;34.75;;;;;3.00;100.00;100742.03;5034421;28;45502;-75
2022/12/10 04:12:12;;;;;;;;;57.50;40.75;;;;;3.03;100.00;100752.56;5035788;28;45431;-75
2022/12/10 04:17:22;;;;;;;;;52.00;43.25;;;;;2.85;100.00;100745.72;5037186;28;45304;-75
2022/12/10 04:19:47;;;;;;;;;50.25;40.25;;;;;2.87;100.00;100748.28;5041651;28;45242;-75
2022/12/10 04:26:51;;;;;;;;;50.00;37.75;;;;;2.95;100.00;100737.94;5041753;28;45318;-75
2022/12/10 04:27:53;;;;;;;;;45.50;38.25;;;;;2.94;100.00;100746.94;5031642;28;45365;-75
2022/12/10 04:30:19;;;;;;;;;58.75;42.75;;;;;2.81;100.00;100738.84;5026908;28;45376;-75
2022/12/10 04:32:44;;;;;;;;;55.25;44.25;;;;;2.92;100.00;100744.34;5032588;28;46299;-75
2022/12/10 04:35:09;;;;;;;;;61.50;44.25;;;;;2.84;100.00;100748.50;5028903;28;45161;-76
2022/12/10 04:37:35;;;;;;;;;55.25;35.25;;;;;2.86;100.00;100747.44;5032674;28;45398;-76
2022/12/10 04:40:01;;;;;;;;;58.00;43.50;;;;;2.91;100.00;100747.16;5033312;28;45567;-76
2022/12/10 04:42:26;;;;;;;;;49.25;40.25;;;;;2.90;100.00;100750.78;5035274;28;47746;-75
2022/12/10 04:44:51;;;;;;;;;50.25;38.75;;;;;2.93;100.00;100747.88;5036807;28;45373;-76
2022/12/10 04:47:17;;;;;;;;;51.50;37.75;;;;;2.88;100.00;100758.94;5020114;28;45352;-75
2022/12/10 04:49:42;;;;;;;;;53.75;41.00;;;;;2.84;100.00;100759.25;5040368;28;45465;-75
2022/12/10 04:52:11;;;;;;;;;44.25;36.75;;;;;2.86;100.00;100758.16;5030991;28;46842;-74
2022/12/10 04:54:37;;;;;;;;;45.25;40.50;;;;;2.98;100.00;100767.25;5034010;28;45326;-74
2022/12/10 04:57:02;;;;;;;;;50.25;35.00;;;;;3.06;100.00;100768.50;5047978;28;45254;-75
2022/12/10 04:59:27;;;;;;;;;34.00;30.75;;;;;2.96;100.00;100767.34;5029656;28;45544;-74
2022/12/10 05:01:53;;;;;;;;;41.50;29.00;;;;;3.03;100.00;100767.81;5040405;28;48211;-74
2022/12/10 05:04:19;;;;;;;;;37.25;36.25;;;;;3.09;100.00;100764.72;5040885;28;45236;-75
2022/12/10 05:06:45;;;;;;;;;46.50;39.75;;;;;3.04;100.00;100759.66;5028611;28;45375;-74
2022/12/10 05:09:12;;;;;;;;;42.50;33.50;;;;;3.02;100.00;100760.72;5032765;28;45567;-75
2022/12/10 05:11:37;;;;;;;;;45.75;39.00;;;;;3.08;100.00;100773.72;5031954;28;45520;-75
2022/12/10 05:14:03;;;;;;;;;45.50;39.00;;;;;2.91;100.00;100768.63;5038076;28;45446;-75
2022/12/10 05:16:31;;;;;;;;;48.25;41.50;;;;;2.97;100.00;100763.72;5032706;28;45426;-74
2022/12/10 05:18:57;;;;;;;;;42.75;39.75;;;;;3.09;100.00;100773.63;5033665;28;45636;-74
2022/12/10 05:23:27;;;;;;;;;40.00;33.00;;;;;3.02;100.00;100766.94;5035252;28;46719;-76
2022/12/10 05:24:11;;;;;;;;;34.25;25.00;;;;;2.98;100.00;100770.81;5027748;28;45407;-74
2022/12/10 05:26:36;;;;;;;;;43.25;37.00;;;;;2.92;100.00;100767.66;5034433;28;45339;-74
2022/12/10 05:29:02;;;;;;;;;45.50;36.25;;;;;3.01;100.00;100775.09;5029046;28;45327;-75
2022/12/10 05:31:29;;;;;;;;;32.25;28.25;;;;;3.02;100.00;100777.69;5033917;28;46891;-74
2022/12/10 05:33:57;;;;;;;;;41.25;35.25;;;;;3.07;100.00;100772.88;5027672;28;45288;-74
2022/12/10 05:36:25;;;;;;;;;35.00;29.25;;;;;3.05;100.00;100777.50;5033423;28;45431;-75
2022/12/10 05:38:51;;;;;;;;;38.50;29.75;;;;;3.01;100.00;100775.97;5028975;28;45564;-74
2022/12/10 05:41:19;;;;;;;;;26.25;22.50;;;;;2.93;100.00;100778.28;5030707;28;47297;-74
2022/12/10 05:43:46;;;;;;;;;46.00;35.25;;;;;2.96;100.00;100780.78;5023818;28;45430;-74
2022/12/10 05:46:14;;;;;;;;;45.00;36.00;;;;;3.01;100.00;100789.38;5041516;28;45490;-74
2022/12/10 05:48:40;;;;;;;;;42.50;39.75;;;;;3.00;100.00;100794.84;5028674;28;45536;-74
2022/12/10 05:51:08;;;;;;;;;34.50;28.50;;;;;2.84;100.00;100796.81;5036256;28;46158;-74
2022/12/10 05:53:34;;;;;;;;;33.25;31.25;;;;;2.99;100.00;100794.00;5029469;28;45749;-74
2022/12/10 05:56:04;;;;;;;;;36.00;32.25;;;;;3.09;100.00;100808.53;5039468;28;45287;-74
2022/12/10 05:58:30;;;;;;;;;42.25;33.25;;;;;3.00;100.00;100795.69;5048540;28;45263;-75
2022/12/10 06:00:57;;;;;;;;;39.25;26.50;;;;;3.02;100.00;100798.28;5027012;28;45505;-75
2022/12/10 06:03:22;;;;;;;;;42.50;35.00;;;;;3.07;100.00;100805.06;5029468;28;45278;-75
2022/12/10 06:05:48;;;;;;;;;41.25;32.25;;;;;3.12;100.00;100794.06;5030168;28;45518;-74
2022/12/10 06:08:13;;;;;;;;;36.25;33.50;;;;;3.03;100.00;100790.16;5042070;28;45549;-76
2022/12/10 06:10:38;;;;;;;;;47.50;35.25;;;;;3.03;100.00;100784.78;5038119;28;47864;-74
2022/12/10 06:13:04;;;;;;;;;51.75;39.00;;;;;3.13;100.00;100795.78;5031398;28;45490;-74
2022/12/10 06:15:30;;;;;;;;;50.00;39.75;;;;;3.10;100.00;100801.34;5035749;28;45288;-76
2022/12/10 06:17:56;;;;;;;;;53.50;38.50;;;;;2.94;100.00;100800.59;5024338;28;45426;-76
2022/12/10 06:20:23;;;;;;;;;36.25;31.75;;;;;3.08;100.00;100812.19;5039798;28;47000;-74
2022/12/10 06:22:48;;;;;;;;;41.50;34.50;;;;;3.16;100.00;100821.56;5039039;28;45782;-74
2022/12/10 06:25:14;;;;;;;;;49.75;33.00;;;;;3.08;100.00;100816.69;5040978;28;45726;-74
2022/12/10 06:27:39;;;;;;;;;28.75;26.50;;;;;3.00;100.00;100811.81;5028824;28;45594;-74
2022/12/10 06:30:05;;;;;;;;;36.00;30.25;;;;;3.08;100.00;100820.22;5035409;28;46626;-75
2022/12/10 06:32:31;;;;;;;;;33.75;27.75;;;;;3.19;100.00;100821.38;5026122;28;45432;-75
2022/12/10 06:34:56;;;;;;;;;39.75;29.25;;;;;3.20;100.00;100818.59;5024698;28;45559;-75
2022/12/10 06:37:22;;;;;;;;;44.00;30.50;;;;;3.17;100.00;100817.91;5025271;28;45475;-75
2022/12/10 06:39:47;;;;;;;;;37.00;32.00;;;;;3.25;100.00;100819.16;5035284;28;46712;-75
2022/12/10 06:42:12;;;;;;;;;41.25;33.50;;;;;3.34;100.00;100828.44;5035849;28;45405;-74
2022/12/10 06:44:38;;;;;;;;;39.75;34.50;;;;;3.18;100.00;100835.75;5040007;28;45415;-74
2022/12/10 06:47:03;;;;;;;;;44.25;34.00;;;;;2.95;100.00;100840.78;5040857;28;45355;-73
2022/12/10 06:49:28;;;;;;;;;44.25;36.75;;;;;3.13;100.00;100844.97;5031124;28;46325;-74
2022/12/10 06:51:54;;;;;;;;;34.00;28.25;;;;;3.12;100.00;100839.69;5039701;28;45488;-74
2022/12/10 06:54:19;;;;;;;;;38.00;28.00;;;;;3.16;100.00;100853.78;5032074;28;45488;-74
2022/12/10 06:56:44;;;;;;;;;36.25;32.00;;;;;3.07;100.00;100847.16;5034571;28;45403;-74
2022/12/10 06:59:10;;;;;;;;;29.50;25.25;;;;;2.95;100.00;100837.22;5032301;28;48427;-75
2022/12/10 07:01:38;;;;;;;;;42.00;31.50;;;;;3.05;100.00;100852.66;5032706;28;46141;-74
2022/12/10 07:04:03;;;;;;;;;31.25;26.00;;;;;3.07;100.00;100844.47;5025973;28;45311;-75
2022/12/10 07:06:30;;;;;;;;;51.75;40.75;;;;;3.02;100.00;100852.84;5027494;28;45352;-75
2022/12/10 07:08:56;;;;;;;;;37.25;28.00;;;;;3.03;100.00;100859.06;5032546;28;45544;-75
2022/12/10 07:11:23;;;;;;;;;41.50;31.00;;;;;2.96;100.00;100847.88;5027381;28;45405;-75
2022/12/10 07:13:50;;;;;;;;;41.50;33.00;;;;;3.17;100.00;100872.47;5035842;28;45262;-75
2022/12/10 07:16:21;;;;;;;;;44.00;34.75;;;;;3.17;100.00;100871.59;5028881;28;45148;-74
2022/12/10 07:18:48;;;;;;;;;35.00;32.75;;;;;3.17;100.00;100876.97;5029755;28;45454;-75
2022/12/10 07:21:37;;;;;;;;;40.25;26.75;;;;;3.18;100.00;100884.06;5036893;28;45365;-75
2022/12/10 07:24:06;;;;;;;;;36.50;32.50;;;;;3.30;100.00;100886.81;5035741;28;45363;-75
2022/12/10 07:26:34;;;;;;;;;35.00;30.25;;;;;3.31;100.00;100887.69;5036910;28;45623;-75
2022/12/10 07:29:01;;;;;;;;;43.50;38.75;;;;;3.27;100.00;100883.50;5035807;28;47052;-76
2022/12/10 07:31:27;;;;;;;;;36.50;24.00;;;;;3.34;100.00;100876.75;5029226;28;45334;-75
2022/12/10 07:33:53;;;;;;;;;43.00;37.00;;;;;3.31;100.00;100880.50;5040426;28;45501;-75
2022/12/10 07:36:22;;;;;;;;;46.50;33.50;;;;;3.37;100.00;100876.53;5029503;28;45409;-75
2022/12/10 07:38:48;;;;;;;;;39.00;30.00;;;;;3.37;100.00;100889.97;5025337;28;46425;-75
2022/12/10 07:41:14;;;;;;;;;35.50;33.00;;;;;3.37;100.00;100885.47;5031886;28;45432;-74
2022/12/10 07:43:42;;;;;;;;;39.25;39.25;;;;;3.30;100.00;100878.75;5036520;28;45467;-76
2022/12/10 07:46:13;;;;;;;;;38.25;30.25;;;;;3.34;100.00;100892.88;5032342;28;45304;-74
2022/12/10 07:48:41;;;;;;;;;40.00;36.00;;;;;3.42;100.00;100894.09;5033767;28;45811;-74
2022/12/10 07:51:07;;;;;;;;;35.00;29.75;;;;;3.41;100.00;100902.25;5035171;28;45356;-74
2022/12/10 07:53:33;;;;;;;;;37.25;31.25;;;;;3.19;100.00;100891.16;5028858;28;45327;-78
2022/12/10 07:55:58;;;;;;;;;36.75;31.50;;;;;3.05;100.00;100900.09;5041253;28;45244;-74
2022/12/10 07:58:24;;;;;;;;;24.00;17.00;;;;;2.95;100.00;100899.81;5030296;28;46227;-75
2022/12/10 08:00:49;;;;;;;;;39.50;28.00;;;;;2.97;100.00;100911.31;5030202;28;45342;-75
2022/12/10 08:03:15;;;;;;;;;45.00;27.25;;;;;3.09;100.00;100913.22;5031864;28;45284;-75
2022/12/10 08:05:41;;;;;;;;;41.00;32.75;;;;;3.16;100.00;100912.81;5032715;28;45482;-75
2022/12/10 08:08:06;;;;;;;;;33.75;26.25;;;;;3.21;100.00;100919.66;5035495;28;45526;-75
2022/12/10 08:10:36;;;;;;;;;34.75;27.00;;;;;3.20;100.00;100927.81;5042155;28;45531;-75
2022/12/10 08:13:01;;;;;;;;;33.00;27.25;;;;;3.25;100.00;100923.84;5025994;28;45346;-75
2022/12/10 08:15:28;;;;;;;;;33.00;27.00;;;;;3.30;100.00;100936.97;5039538;28;45322;-75
2022/12/10 08:17:53;;;;;;;;;43.50;32.75;;;;;3.37;100.00;100927.56;5037048;28;47621;-74
2022/12/10 08:20:19;;;;;;;;;41.25;30.25;;;;;3.45;100.00;100927.94;5043117;28;45608;-75
2022/12/10 08:22:44;;;;;;;;;37.75;25.50;;;;;3.43;100.00;100932.56;5033384;28;45919;-76
2022/12/10 08:25:10;;;;;;;;;42.75;29.50;;;;;3.41;100.00;100935.34;5040249;28;45313;-74
2022/12/10 08:27:35;;;;;;;;;27.50;22.50;;;;;3.52;100.00;100940.88;5028514;28;45342;-74
2022/12/10 08:30:00;;;;;;;;;30.25;23.75;;;;;3.59;100.00;100930.59;5026427;28;45403;-74
2022/12/10 08:32:26;;;;;;;;;37.75;28.25;;;;;3.62;100.00;100942.97;5027024;28;45723;-75
2022/12/10 08:34:51;;;;;;;;;36.25;26.25;;;;;3.62;100.00;100949.22;5041020;28;45396;-75
2022/12/10 08:37:17;;;;;;;;;34.50;28.75;;;;;3.68;100.00;100953.31;5039926;28;47352;-75
2022/12/10 08:39:42;;;;;;;;;38.00;33.25;;;;;3.62;100.00;100959.97;5040559;28;45674;-74
2022/12/10 08:42:08;;;;;;;;;34.25;26.50;;;;;3.57;100.00;100966.59;5029172;28;45343;-74
2022/12/10 08:44:33;;;;;;;;;34.75;27.25;;;;;3.66;100.00;100961.47;5026509;28;45362;-75
2022/12/10 08:46:58;;;;;;;;;30.00;25.00;;;;;3.73;100.00;100964.63;5033573;28;47681;-75
2022/12/10 08:49:24;;;;;;;;;31.00;26.00;;;;;3.82;100.00;100964.03;5042941;28;45351;-75
2022/12/10 08:51:49;;;;;;;;;36.00;25.75;;;;;3.81;100.00;100954.25;5031435;28;45347;-75
2022/12/10 08:54:14;;;;;;;;;32.25;21.50;;;;;3.64;100.00;100950.00;5039410;28;45720;-74
2022/12/10 08:56:40;;;;;;;;;42.50;30.25;;;;;3.75;100.00;100962.72;5034896;28;45588;-74
2022/12/10 08:59:06;;;;;;;;;34.00;26.75;;;;;3.79;100.00;100973.19;5027359;28;45265;-75
2022/12/10 09:01:32;;;;;;;;;23.75;23.75;;;;;3.83;100.00;100973.81;5030162;28;45263;-75
2022/12/10 09:03:57;;;;;;;;;45.75;34.00;;;;;3.77;100.00;100963.47;5039551;28;45395;-75
2022/12/10 09:06:26;;;;;;;;;29.50;22.50;;;;;3.55;100.00;100973.88;5031249;28;45495;-75
2022/12/10 09:08:51;;;;;;;;;37.00;31.25;;;;;3.51;100.00;100976.75;5035912;28;45428;-75
2022/12/10 09:11:23;;;;;;;;;33.75;31.25;;;;;3.53;100.00;100982.03;5040167;28;45470;-75
2022/12/10 09:13:49;;;;;;;;;31.75;28.75;;;;;3.63;100.00;100977.81;5038571;28;45259;-75
2022/12/10 09:16:15;;;;;;;;;35.50;30.25;;;;;3.70;100.00;100983.66;5032123;28;48237;-75
2022/12/10 09:18:41;;;;;;;;;36.50;25.75;;;;;3.77;100.00;100988.53;5038885;28;45335;-75
2022/12/10 09:21:08;;;;;;;;;37.00;32.25;;;;;3.68;100.00;100985.56;5037186;28;45373;-76
2022/12/10 09:23:34;;;;;;;;;36.50;31.00;;;;;3.63;100.00;100993.06;5039376;28;45343;-76
2022/12/10 09:25:59;;;;;;;;;28.00;23.00;;;;;3.63;100.00;101003.81;5037263;28;46596;-75
2022/12/10 09:28:25;;;;;;;;;39.75;31.50;;;;;3.79;100.00;100994.69;5031629;28;45353;-76
2022/12/10 09:30:59;;;;;;;;;31.25;27.00;;;;;3.93;100.00;100993.78;5039939;28;45435;-74
2022/12/10 09:33:26;;;;;;;;;37.50;27.75;;;;;3.92;100.00;100992.06;5040323;28;45502;-77
2022/12/10 09:35:52;;;;;;;;;34.75;27.75;;;;;3.83;100.00;100987.25;5038732;28;46440;-75
2022/12/10 09:38:18;;;;;;;;;35.00;29.25;;;;;3.76;100.00;100986.81;5042926;28;45350;-76
2022/12/10 09:40:50;;;;;;;;;35.75;27.25;;;;;3.91;100.00;100998.38;5028544;28;45303;-75
2022/12/10 09:43:34;;;;;;;;;32.75;30.00;;;;;3.77;100.00;100993.03;5024180;28;45304;-75
2022/12/10 09:46:24;;;;;;;;;29.50;27.75;;;;;3.79;100.00;100994.69;5030576;28;45600;-74
2022/12/10 09:49:20;;;;;;;;;34.25;31.25;;;;;3.92;100.00;100998.28;5025916;28;45246;-75
2022/12/10 09:51:45;;;;;;;;;33.50;24.25;;;;;4.03;100.00;100999.41;5009118;28;45751;-74
2022/12/10 09:54:16;;;;;;;;;41.50;27.00;;;;;4.05;100.00;101000.16;5033319;28;45415;-74
2022/12/10 09:56:43;;;;;;;;;31.50;25.00;;;;;4.00;100.00;100999.63;5041160;28;48255;-74
2022/12/10 09:59:30;;;;;;;;;40.75;32.25;;;;;4.06;100.00;101002.75;5041226;28;45527;-75
2022/12/10 10:02:21;;;;;;;;;29.00;25.00;;;;;4.00;100.00;101010.38;5036313;28;45515;-75
2022/12/10 10:04:48;;;;;;;;;31.75;29.75;;;;;4.14;100.00;101000.44;5043295;28;45371;-74
2022/12/10 10:07:21;;;;;;;;;37.50;29.25;;;;;4.23;100.00;101004.34;5034740;28;47260;-75
2022/12/10 10:09:47;;;;;;;;;32.25;25.25;;;;;4.09;100.00;100988.25;5034501;28;45308;-75
2022/12/10 10:12:14;;;;;;;;;36.75;29.25;;;;;4.22;100.00;101002.63;5037595;28;45509;-75
2022/12/10 10:14:42;;;;;;;;;33.75;28.00;;;;;4.02;100.00;101000.38;5037296;28;45326;-75
2022/12/10 10:17:16;;;;;;;;;52.00;42.50;;;;;3.95;100.00;101012.47;5037395;28;48380;-74
2022/12/10 10:19:44;;;;;;;;;38.00;27.75;;;;;3.92;100.00;101002.81;5032432;28;46308;-74
2022/12/10 10:22:11;;;;;;;;;32.25;29.00;;;;;4.17;100.00;101007.41;5029943;28;45711;-74
2022/12/10 10:24:41;;;;;;;;;34.00;30.00;;;;;4.30;100.00;101002.97;5038781;28;45302;-74
2022/12/10 10:27:19;;;;;;;;;31.25;28.50;;;;;4.24;100.00;100995.28;5048248;28;45935;-75
2022/12/10 10:29:47;;;;;;;;;29.75;27.00;;;;;4.33;100.00;101002.75;5023571;28;45483;-75
2022/12/10 10:32:17;;;;;;;;;32.50;26.25;;;;;4.26;100.00;100985.28;5023516;28;45501;-75
2022/12/10 10:34:43;;;;;;;;;43.75;33.75;;;;;4.24;100.00;101000.66;5027677;28;45555;-75
2022/12/10 10:37:38;;;;;;;;;41.50;30.50;;;;;4.19;100.00;100994.75;5024400;28;45449;-75
2022/12/10 10:40:03;;;;;;;;;34.50;26.25;;;;;4.14;100.00;100986.13;5024034;28;45458;-75
2022/12/10 10:42:39;;;;;;;;;27.75;22.00;;;;;4.32;100.00;100998.31;5036596;28;45797;-75
2022/12/10 10:45:26;;;;;;;;;41.00;35.75;;;;;4.01;100.00;100980.69;5037913;28;45432;-75
2022/12/10 10:48:05;;;;;;;;;37.00;29.75;;;;;4.43;100.00;101003.00;5028523;28;46517;-76
2022/12/10 10:50:35;;;;;;;;;30.75;25.50;;;;;4.54;100.00;101001.31;5030839;28;45584;-76
2022/12/10 10:53:00;;;;;;;;;45.75;35.75;;;;;4.41;100.00;100992.34;5028112;28;45297;-76
2022/12/10 10:55:35;;;;;;;;;42.50;34.75;;;;;4.36;100.00;100986.41;5039436;28;45223;-76
2022/12/10 10:58:01;;;;;;;;;43.50;35.50;;;;;4.45;100.00;101001.94;5029497;28;46174;-76
2022/12/10 11:00:26;;;;;;;;;41.50;33.50;;;;;4.60;100.00;101000.03;5029887;28;45566;-75
2022/12/10 11:02:52;;;;;;;;;48.75;36.25;;;;;4.72;100.00;101006.41;5034104;28;45407;-75
2022/12/10 11:05:23;;;;;;;;;44.25;36.50;;;;;4.56;100.00;101007.44;5033923;28;45279;-74
2022/12/10 11:08:00;;;;;;;;;41.75;34.25;;;;;4.55;100.00;101005.72;5035730;28;45563;-75
2022/12/10 11:10:27;;;;;;;;;44.75;38.50;;;;;4.57;100.00;101009.19;5036925;28;45188;-75
2022/12/10 11:13:04;;;;;;;;;45.00;38.00;;;;;4.80;100.00;101004.94;5032736;28;45185;-74
2022/12/10 11:16:00;;;;;;;;;35.00;26.00;;;;;4.65;100.00;101000.59;5038539;28;45520;-75
2022/12/10 11:18:28;;;;;;;;;41.75;34.25;;;;;4.68;100.00;101003.91;5034067;28;46907;-74
2022/12/10 11:21:07;;;;;;;;;54.75;34.00;;;;;4.52;100.00;101000.56;5033352;28;45414;-75